Time;durP1;ratioP1;P1;durP2;ratioP2;P2;SDS_P1;SDS_P2;PMS_P1;PMS_P2;Temp;Humidity;BMP_temperature;BMP_pressure;BME280_temperature;BME280_humidity;BME280_pressure;Samples;Min_cycle;Max_cycle;Signal;HPM_P1;HPM_P2
2022/06/01 00:00:09;;;;;;;1999.90;999.90;;;12.20;99.90;;;;;;5072261;28;20183;-70
2022/06/01 00:02:35;;;;;;;1999.90;999.90;;;12.10;99.90;;;;;;5071950;28;20179;-70
2022/06/01 00:05:02;;;;;;;1999.90;999.90;;;12.20;99.90;;;;;;5071689;28;20437;-70
2022/06/01 00:07:27;;;;;;;1999.90;999.90;;;12.10;99.90;;;;;;5072141;28;20399;-70
2022/06/01 00:09:54;;;;;;;1999.90;999.90;;;12.10;99.90;;;;;;5071854;28;20439;-70
2022/06/01 00:12:20;;;;;;;1999.90;999.90;;;12.10;99.90;;;;;;5071742;28;20175;-69
2022/06/01 00:14:46;;;;;;;1999.90;999.90;;;12.00;99.90;;;;;;5071573;28;20410;-70
2022/06/01 00:17:12;;;;;;;1999.90;999.90;;;11.90;99.90;;;;;;5071767;28;20478;-70
2022/06/01 00:19:37;;;;;;;1999.90;999.90;;;11.90;99.90;;;;;;5071762;28;20195;-70
2022/06/01 00:22:12;;;;;;;1999.90;999.90;;;11.90;99.90;;;;;;5074677;28;20178;-70
2022/06/01 00:24:43;;;;;;;1999.90;999.90;;;11.80;99.90;;;;;;5075022;28;20666;-70
2022/06/01 00:27:10;;;;;;;1999.90;999.90;;;11.70;99.90;;;;;;5075564;28;20408;-69
2022/06/01 00:29:37;;;;;;;1999.90;999.90;;;11.60;99.90;;;;;;5075180;28;20789;-69
2022/06/01 00:32:03;;;;;;;1999.90;999.90;;;11.60;99.90;;;;;;5075604;28;20856;-69
2022/06/01 00:34:29;;;;;;;1999.90;999.90;;;11.50;99.90;;;;;;5074992;28;20933;-70
2022/06/01 00:36:54;;;;;;;1999.90;999.90;;;11.60;99.90;;;;;;5075820;28;20406;-69
2022/06/01 00:39:20;;;;;;;1999.90;999.90;;;11.60;99.90;;;;;;5076000;28;20248;-70
2022/06/01 00:41:45;;;;;;;1999.90;999.90;;;11.60;99.90;;;;;;5075290;28;20551;-70
2022/06/01 00:44:11;;;;;;;1999.90;999.90;;;11.70;99.90;;;;;;5075241;28;20194;-69
2022/06/01 00:46:37;;;;;;;1999.90;999.90;;;11.80;99.90;;;;;;5075743;28;20163;-69
2022/06/01 00:49:13;;;;;;;1999.90;999.90;;;11.80;99.90;;;;;;5076026;28;20175;-70
2022/06/01 00:51:38;;;;;;;1999.90;999.90;;;11.80;99.90;;;;;;5076060;28;20194;-70
2022/06/01 00:54:04;;;;;;;1999.90;999.90;;;11.80;99.90;;;;;;5075431;28;20409;-70
2022/06/01 00:56:37;;;;;;;1999.90;999.90;;;11.80;99.90;;;;;;5075640;28;20620;-69
2022/06/01 00:59:05;;;;;;;1999.90;999.90;;;11.80;99.90;;;;;;5074474;28;20398;-69
2022/06/01 01:01:31;;;;;;;1999.90;999.90;;;11.80;99.90;;;;;;5074316;28;20417;-68
2022/06/01 01:03:59;;;;;;;1999.90;999.90;;;11.80;99.90;;;;;;5074250;28;20409;-69
2022/06/01 01:06:31;;;;;;;1999.90;999.90;;;11.80;99.90;;;;;;5074175;28;20441;-68
2022/06/01 01:08:58;;;;;;;1999.90;999.90;;;11.80;99.90;;;;;;5074243;28;20398;-71
2022/06/01 01:11:54;;;;;;;1999.90;999.90;;;11.80;99.90;;;;;;5074050;28;20452;-70
2022/06/01 01:14:25;;;;;;;1999.90;999.90;;;11.80;99.90;;;;;;5063563;28;20428;-69
2022/06/01 01:16:51;;;;;;;1999.90;999.90;;;11.80;99.90;;;;;;5074066;28;20397;-68
2022/06/01 01:19:35;;;;;;;1999.90;999.90;;;11.80;99.90;;;;;;5074071;28;20748;-69
2022/06/01 01:22:37;;;;;;;1999.90;999.90;;;11.70;99.90;;;;;;5074080;28;20412;-69
2022/06/01 01:25:23;;;;;;;1999.90;999.90;;;11.70;99.90;;;;;;5073535;28;20440;-69
2022/06/01 01:27:56;;;;;;;1999.90;999.90;;;11.60;99.90;;;;;;5073857;28;20409;-69
2022/06/01 01:31:04;;;;;;;1999.90;999.90;;;11.50;99.90;;;;;;5073670;28;20441;-69
2022/06/01 01:33:30;;;;;;;1999.90;999.90;;;11.50;99.90;;;;;;5073069;28;20408;-69
2022/06/01 01:36:06;;;;;;;1999.90;999.90;;;11.50;99.90;;;;;;5073411;28;20963;-70
2022/06/01 01:38:40;;;;;;;1999.90;999.90;;;11.50;99.90;;;;;;5073735;28;20264;-69
2022/06/01 01:41:29;;;;;;;1999.90;999.90;;;11.40;99.90;;;;;;5073499;28;20424;-69
2022/06/01 01:44:00;;;;;;;1999.90;999.90;;;11.40;99.90;;;;;;5073505;28;20467;-69
2022/06/01 01:46:27;;;;;;;1999.90;999.90;;;11.40;99.90;;;;;;5073377;28;20448;-68
2022/06/01 01:48:53;;;;;;;1999.90;999.90;;;11.40;99.90;;;;;;5073412;28;20496;-69
2022/06/01 01:51:21;;;;;;;1999.90;999.90;;;11.30;99.90;;;;;;5073346;28;20436;-69
2022/06/01 01:53:47;;;;;;;1999.90;999.90;;;11.30;99.90;;;;;;5073303;28;20406;-70
2022/06/01 01:56:24;;;;;;;1999.90;999.90;;;11.30;99.90;;;;;;5073000;28;20421;-70
2022/06/01 01:59:15;;;;;;;1999.90;999.90;;;11.20;99.90;;;;;;5073432;28;20743;-69
2022/06/01 02:01:45;;;;;;;1999.90;999.90;;;11.10;99.90;;;;;;5073147;28;20425;-69
2022/06/01 02:07:10;;;;;;;1999.90;999.90;;;10.90;99.90;;;;;;5073091;28;20405;-71
2022/06/01 02:15:06;;;;;;;1999.90;999.90;;;10.80;99.90;;;;;;5072667;28;20967;-68
2022/06/01 02:18:01;;;;;;;1999.90;999.90;;;10.70;99.90;;;;;;5072888;28;20408;-68
2022/06/01 02:20:40;;;;;;;1999.90;999.90;;;10.70;99.90;;;;;;5070400;28;20981;-70
2022/06/01 02:23:07;;;;;;;1999.90;999.90;;;10.70;99.90;;;;;;5072727;28;20507;-68
2022/06/01 02:25:33;;;;;;;1999.90;999.90;;;10.60;99.90;;;;;;5072251;28;20441;-69
2022/06/01 02:27:59;;;;;;;1999.90;999.90;;;10.60;99.90;;;;;;5072699;28;20469;-69
2022/06/01 02:30:32;;;;;;;1999.90;999.90;;;10.70;99.90;;;;;;5072491;28;20440;-68
2022/06/01 02:33:00;;;;;;;1999.90;999.90;;;10.60;99.90;;;;;;5072580;28;20861;-69
2022/06/01 02:35:28;;;;;;;1999.90;999.90;;;10.60;99.90;;;;;;5072247;28;20913;-69
2022/06/01 02:37:57;;;;;;;1999.90;999.90;;;10.50;99.90;;;;;;5072506;28;20785;-69
2022/06/01 02:40:25;;;;;;;1999.90;999.90;;;10.50;99.90;;;;;;5072319;28;20425;-68
2022/06/01 02:42:52;;;;;;;1999.90;999.90;;;10.40;99.90;;;;;;5072626;28;20432;-68
2022/06/01 02:45:26;;;;;;;1999.90;999.90;;;10.30;99.90;;;;;;5071342;28;20457;-70
2022/06/01 02:47:55;;;;;;;1999.90;999.90;;;10.40;99.90;;;;;;5072351;28;20439;-70
2022/06/01 02:50:23;;;;;;;1999.90;999.90;;;10.40;99.90;;;;;;5072254;28;20424;-69
2022/06/01 02:52:50;;;;;;;1999.90;999.90;;;10.40;99.90;;;;;;5072234;28;20921;-69
2022/06/01 02:55:17;;;;;;;1999.90;999.90;;;10.40;99.90;;;;;;5071942;28;20414;-68
2022/06/01 02:57:43;;;;;;;1999.90;999.90;;;10.40;99.90;;;;;;5072244;28;20419;-69
2022/06/01 03:00:17;;;;;;;1999.90;999.90;;;10.50;99.90;;;;;;5072122;28;20428;-68
2022/06/01 03:02:48;;;;;;;1999.90;999.90;;;10.50;99.90;;;;;;5072176;28;20809;-69
2022/06/01 03:05:15;;;;;;;1999.90;999.90;;;10.50;99.90;;;;;;5071705;28;20965;-69
2022/06/01 03:07:41;;;;;;;1999.90;999.90;;;10.40;99.90;;;;;;5072089;28;20864;-69
2022/06/01 03:10:09;;;;;;;1999.90;999.90;;;10.40;99.90;;;;;;5071931;28;20938;-69
2022/06/01 03:12:36;;;;;;;1999.90;999.90;;;10.40;99.90;;;;;;5072107;28;20428;-69
2022/06/01 03:15:02;;;;;;;1999.90;999.90;;;10.40;99.90;;;;;;5071733;28;20416;-69
2022/06/01 03:17:27;;;;;;;1999.90;999.90;;;10.40;99.90;;;;;;5072041;28;20851;-69
2022/06/01 03:19:53;;;;;;;1999.90;999.90;;;10.40;99.90;;;;;;5071858;28;20522;-69
2022/06/01 03:22:18;;;;;;;1999.90;999.90;;;10.30;99.90;;;;;;5071892;28;20271;-69
2022/06/01 03:24:44;;;;;;;1999.90;999.90;;;10.40;99.90;;;;;;5071511;28;20195;-69
2022/06/01 03:27:10;;;;;;;1999.90;999.90;;;10.40;99.90;;;;;;5071886;28;20178;-69
2022/06/01 03:29:35;;;;;;;1999.90;999.90;;;10.40;99.90;;;;;;5071728;28;20170;-69
2022/06/01 03:32:01;;;;;;;1999.90;999.90;;;10.30;99.90;;;;;;5094160;22;20227;-70
2022/06/01 03:34:30;;;;;;;1999.90;999.90;;;10.30;99.90;;;;;;5051433;28;20595;-70
2022/06/01 03:36:56;;;;;;;1999.90;999.90;;;10.30;99.90;;;;;;5051759;28;20179;-70
2022/06/01 03:39:21;;;;;;;1999.90;999.90;;;10.30;99.90;;;;;;5051703;28;20403;-69
2022/06/01 03:41:47;;;;;;;1999.90;999.90;;;10.30;99.90;;;;;;5051644;28;20922;-70
2022/06/01 03:47:04;;;;;;;1999.90;999.90;;;10.20;99.90;;;;;;5051687;28;20175;-69
2022/06/01 03:49:32;;;;;;;1999.90;999.90;;;10.20;99.90;;;;;;5051721;28;20409;-70
2022/06/01 03:51:58;;;;;;;1999.90;999.90;;;10.20;99.90;;;;;;5051549;28;20941;-70
2022/06/01 03:54:24;;;;;;;1999.90;999.90;;;10.20;99.90;;;;;;5051271;28;20444;-70
2022/06/01 03:56:50;;;;;;;1999.90;999.90;;;10.20;99.90;;;;;;5054314;28;20795;-70
2022/06/01 03:59:15;;;;;;;1999.90;999.90;;;10.30;99.90;;;;;;5055467;28;20409;-69
2022/06/01 04:01:41;;;;;;;1999.90;999.90;;;10.30;99.90;;;;;;5055430;28;20191;-69
2022/06/01 04:04:06;;;;;;;1999.90;999.90;;;10.30;99.90;;;;;;5055135;28;20167;-70
2022/06/01 04:06:32;;;;;;;1999.90;999.90;;;10.30;99.90;;;;;;5055479;28;20213;-70
2022/06/01 04:08:57;;;;;;;1999.90;999.90;;;10.30;99.90;;;;;;5055380;28;20705;-69
2022/06/01 04:11:23;;;;;;;1999.90;999.90;;;10.30;99.90;;;;;;5055286;28;20549;-69
2022/06/01 04:13:49;;;;;;;1999.90;999.90;;;10.30;99.90;;;;;;5055289;28;20167;-69
2022/06/01 04:16:18;;;;;;;1999.90;999.90;;;10.30;99.90;;;;;;5055005;28;20182;-70
2022/06/01 04:18:45;;;;;;;1999.90;999.90;;;10.30;99.90;;;;;;5055136;28;20300;-70
2022/06/01 04:21:10;;;;;;;1999.90;999.90;;;10.30;99.90;;;;;;5055201;28;20437;-70
2022/06/01 04:23:36;;;;;;;1999.90;999.90;;;10.40;99.90;;;;;;5055080;28;20979;-69
2022/06/01 04:26:02;;;;;;;1999.90;999.90;;;10.40;99.90;;;;;;5054732;28;20737;-70
2022/06/01 04:28:28;;;;;;;1999.90;999.90;;;10.40;99.90;;;;;;5055083;28;20174;-70
2022/06/01 04:30:53;;;;;;;1999.90;999.90;;;10.40;99.90;;;;;;5054732;28;20441;-69
2022/06/01 04:33:19;;;;;;;1999.90;999.90;;;10.50;99.90;;;;;;5054928;28;20249;-70
2022/06/01 04:35:45;;;;;;;1999.90;999.90;;;10.40;99.90;;;;;;5054604;28;20644;-69
2022/06/01 04:38:13;;;;;;;1999.90;999.90;;;10.60;99.90;;;;;;5054768;28;20565;-69
2022/06/01 04:40:45;;;;;;;1999.90;999.90;;;10.50;99.90;;;;;;5054705;28;20202;-69
2022/06/01 04:43:12;;;;;;;1999.90;999.90;;;10.60;99.90;;;;;;5054729;28;20424;-69
2022/06/01 04:45:38;;;;;;;1999.90;999.90;;;10.60;99.90;;;;;;5054451;28;20502;-69
2022/06/01 04:48:03;;;;;;;1999.90;999.90;;;10.60;99.90;;;;;;5054856;28;20434;-68
2022/06/01 04:50:29;;;;;;;1999.90;999.90;;;10.50;99.90;;;;;;5054526;28;20190;-69
2022/06/01 04:52:54;;;;;;;1999.90;999.90;;;10.60;99.90;;;;;;5054508;28;20175;-69
2022/06/01 04:55:21;;;;;;;1999.90;999.90;;;10.60;99.90;;;;;;5054169;28;20178;-71
2022/06/01 04:57:46;;;;;;;1999.90;999.90;;;10.60;99.90;;;;;;5054477;28;20788;-69
2022/06/01 05:00:13;;;;;;;1999.90;999.90;;;10.50;99.90;;;;;;5054361;28;20422;-69
2022/06/01 05:02:38;;;;;;;1999.90;999.90;;;10.50;99.90;;;;;;5054558;28;20179;-69
2022/06/01 05:05:04;;;;;;;1999.90;999.90;;;10.50;99.90;;;;;;5053941;28;20934;-70
2022/06/01 05:07:30;;;;;;;1999.90;999.90;;;10.60;99.90;;;;;;5053275;28;20164;-70
2022/06/01 05:09:56;;;;;;;1999.90;999.90;;;10.60;99.90;;;;;;5054136;28;20421;-70
2022/06/01 05:12:21;;;;;;;1999.90;999.90;;;10.70;99.90;;;;;;5054068;28;20165;-70
2022/06/01 05:14:47;;;;;;;1999.90;999.90;;;10.70;99.90;;;;;;5053836;28;20175;-70
2022/06/01 05:17:12;;;;;;;1999.90;999.90;;;10.70;99.90;;;;;;5054219;28;20175;-70
2022/06/01 05:19:38;;;;;;;1999.90;999.90;;;10.80;99.90;;;;;;5054075;28;20171;-70
2022/06/01 05:22:04;;;;;;;1999.90;999.90;;;10.80;99.90;;;;;;5053954;28;20247;-71
2022/06/01 05:24:29;;;;;;;1999.90;999.90;;;10.80;99.90;;;;;;5053576;28;20286;-70
2022/06/01 05:26:55;;;;;;;1999.90;999.90;;;10.90;99.90;;;;;;5053945;28;20606;-70
2022/06/01 05:29:22;;;;;;;1999.90;999.90;;;10.90;99.90;;;;;;5053884;28;20168;-70
2022/06/01 05:31:48;;;;;;;1999.90;999.90;;;10.90;99.90;;;;;;5053769;28;20612;-70
2022/06/01 05:34:14;;;;;;;1999.90;999.90;;;11.00;99.90;;;;;;5053459;28;20497;-70
2022/06/01 05:36:40;;;;;;;1999.90;999.90;;;11.00;99.90;;;;;;5053798;28;20463;-70
2022/06/01 05:39:06;;;;;;;1999.90;999.90;;;11.00;99.90;;;;;;5053691;28;20926;-69
2022/06/01 05:41:31;;;;;;;1999.90;999.90;;;11.10;99.90;;;;;;5053494;28;20427;-70
2022/06/01 05:43:57;;;;;;;1999.90;999.90;;;11.10;99.90;;;;;;5053542;28;20164;-70
2022/06/01 05:46:23;;;;;;;1999.90;999.90;;;11.10;99.90;;;;;;5053312;28;20203;-70
2022/06/01 05:48:49;;;;;;;1999.90;999.90;;;11.20;99.90;;;;;;5053458;28;20189;-70
2022/06/01 05:51:14;;;;;;;1999.90;999.90;;;11.30;99.90;;;;;;5053311;28;20277;-70
2022/06/01 05:53:41;;;;;;;1999.90;999.90;;;11.40;99.90;;;;;;5053440;28;20405;-69
2022/06/01 05:56:07;;;;;;;1999.90;999.90;;;11.40;99.90;;;;;;5053028;28;20168;-69
2022/06/01 05:58:32;;;;;;;1999.90;999.90;;;11.40;99.90;;;;;;5053589;28;20500;-70
2022/06/01 06:01:04;;;;;;;1999.90;999.90;;;11.50;99.90;;;;;;5053269;28;20414;-70
2022/06/01 06:03:30;;;;;;;1999.90;999.90;;;11.60;99.90;;;;;;5053235;28;20588;-70
2022/06/01 06:06:15;;;;;;;1999.90;999.90;;;11.60;99.90;;;;;;5052831;28;20437;-70
2022/06/01 06:08:44;;;;;;;1999.90;999.90;;;11.70;99.90;;;;;;5053058;28;20413;-71
2022/06/01 06:11:11;;;;;;;1999.90;999.90;;;11.80;99.90;;;;;;5053059;28;21114;-70
2022/06/01 06:13:37;;;;;;;1999.90;999.90;;;11.90;99.90;;;;;;5052965;28;20430;-71
2022/06/01 06:16:03;;;;;;;1999.90;999.90;;;12.00;99.90;;;;;;5052646;28;20454;-70
2022/06/01 06:18:29;;;;;;;1999.90;999.90;;;12.10;99.90;;;;;;5052789;28;20274;-71
2022/06/01 06:20:55;;;;;;;1999.90;999.90;;;12.20;99.90;;;;;;5052712;28;20509;-71
2022/06/01 06:23:21;;;;;;;1999.90;999.90;;;12.20;99.90;;;;;;5052801;28;20864;-71
2022/06/01 06:25:46;;;;;;;1999.90;999.90;;;12.30;99.90;;;;;;5052453;28;20231;-70
2022/06/01 06:28:12;;;;;;;1999.90;999.90;;;12.50;99.90;;;;;;5052770;28;20409;-70
2022/06/01 06:30:38;;;;;;;1999.90;999.90;;;12.60;99.90;;;;;;5052512;28;20274;-70
2022/06/01 06:33:05;;;;;;;1999.90;999.90;;;12.70;99.90;;;;;;5052775;28;20519;-69
2022/06/01 06:35:31;;;;;;;1999.90;999.90;;;12.90;99.90;;;;;;5052218;28;20993;-70
2022/06/01 06:37:56;;;;;;;1999.90;999.90;;;13.10;99.90;;;;;;5052560;28;20442;-70
2022/06/01 06:40:22;;;;;;;1999.90;999.90;;;13.40;99.90;;;;;;5052446;28;20466;-70
2022/06/01 06:42:48;;;;;;;1999.90;999.90;;;13.50;99.90;;;;;;5052521;28;20639;-70
2022/06/01 06:45:14;;;;;;;1999.90;999.90;;;13.70;99.90;;;;;;5052055;28;20196;-70
2022/06/01 06:47:41;;;;;;;1999.90;999.90;;;13.80;99.90;;;;;;5052411;28;20177;-70
2022/06/01 06:50:09;;;;;;;1999.90;999.90;;;13.90;99.90;;;;;;5052211;28;20176;-70
2022/06/01 06:52:35;;;;;;;1999.90;999.90;;;14.10;99.90;;;;;;5052292;28;20436;-71
2022/06/01 06:55:00;;;;;;;1999.90;999.90;;;14.20;99.90;;;;;;5052133;28;20410;-70
2022/06/01 06:57:26;;;;;;;1999.90;999.90;;;14.20;99.90;;;;;;5052209;28;20184;-70
2022/06/01 06:59:52;;;;;;;1999.90;999.90;;;14.30;99.90;;;;;;5052120;28;20176;-70
2022/06/01 07:02:18;;;;;;;1999.90;999.90;;;14.40;99.90;;;;;;5052215;28;20190;-71
2022/06/01 07:04:45;;;;;;;1999.90;999.90;;;14.50;99.90;;;;;;5051667;28;20442;-71
2022/06/01 07:07:11;;;;;;;1999.90;999.90;;;14.60;99.90;;;;;;5052093;28;20205;-70
2022/06/01 07:09:36;;;;;;;1999.90;999.90;;;14.70;99.90;;;;;;5052065;28;20442;-70
2022/06/01 07:12:02;;;;;;;1999.90;999.90;;;14.60;99.90;;;;;;5051995;28;20183;-71
2022/06/01 07:14:28;;;;;;;1999.90;999.90;;;14.60;99.90;;;;;;5051789;28;20586;-70
2022/06/01 07:16:53;;;;;;;1999.90;999.90;;;14.50;99.90;;;;;;5052056;28;20436;-70
2022/06/01 07:19:19;;;;;;;1999.90;999.90;;;14.50;99.90;;;;;;5051891;28;20658;-70
2022/06/01 07:21:45;;;;;;;1999.90;999.90;;;14.50;99.90;;;;;;5052051;28;20184;-71
2022/06/01 07:24:10;;;;;;;1999.90;999.90;;;14.50;99.90;;;;;;5051701;28;20657;-71
2022/06/01 07:26:39;;;;;;;1999.90;999.90;;;14.40;99.90;;;;;;5051786;28;20236;-71
2022/06/01 07:29:06;;;;;;;1999.90;999.90;;;14.40;99.90;;;;;;5051884;28;20597;-70
2022/06/01 07:31:32;;;;;;;1999.90;999.90;;;14.40;99.90;;;;;;5051107;28;20835;-71
2022/06/01 07:34:00;;;;;;;1999.90;999.90;;;14.40;99.90;;;;;;5051621;28;20410;-71
2022/06/01 07:36:27;;;;;;;1999.90;999.90;;;14.50;99.90;;;;;;5051798;28;20199;-70
2022/06/01 07:44:38;;;;;;;1999.90;999.90;;;14.60;99.90;;;;;;5051615;28;20460;-70
2022/06/01 07:47:04;;;;;;;1999.90;999.90;;;14.60;99.90;;;;;;5051681;28;20905;-70
2022/06/01 07:49:29;;;;;;;1999.90;999.90;;;14.60;99.90;;;;;;5051603;28;20397;-70
2022/06/01 07:51:55;;;;;;;1999.90;999.90;;;14.60;99.90;;;;;;5051541;28;20419;-70
2022/06/01 07:54:21;;;;;;;1999.90;999.90;;;14.60;99.90;;;;;;5051389;28;20218;-70
2022/06/01 07:56:46;;;;;;;1999.90;999.90;;;14.70;99.90;;;;;;5051631;28;20201;-71
2022/06/01 07:59:12;;;;;;;1999.90;999.90;;;14.60;99.90;;;;;;5051616;28;20404;-70
2022/06/01 08:01:39;;;;;;;1999.90;999.90;;;14.70;99.90;;;;;;5051487;28;20183;-71
2022/06/01 08:04:05;;;;;;;1999.90;999.90;;;14.70;99.90;;;;;;5051189;28;20403;-71
2022/06/01 08:06:33;;;;;;;1999.90;999.90;;;14.80;99.90;;;;;;5051396;28;20985;-70
2022/06/01 08:08:59;;;;;;;1999.90;999.90;;;14.90;99.90;;;;;;5051597;28;20400;-71
2022/06/01 08:13:06;;;;;;;1999.90;999.90;;;15.00;99.90;;;;;;5051287;28;20416;-71
2022/06/01 08:14:13;;;;;;;1999.90;999.90;;;15.10;99.90;;;;;;5051025;28;20553;-71
2022/06/01 08:16:40;;;;;;;1999.90;999.90;;;15.10;99.90;;;;;;5051439;28;20441;-71
2022/06/01 08:19:07;;;;;;;1999.90;999.90;;;15.20;99.90;;;;;;5051328;28;20420;-71
2022/06/01 08:21:34;;;;;;;1999.90;999.90;;;15.20;99.90;;;;;;5051248;28;20455;-70
2022/06/01 08:24:00;;;;;;;1999.90;999.90;;;15.40;99.90;;;;;;5051053;28;21136;-71
2022/06/01 08:26:26;;;;;;;1999.90;999.90;;;15.40;99.90;;;;;;5051187;28;20446;-71
2022/06/01 08:28:51;;;;;;;1999.90;999.90;;;15.40;99.90;;;;;;5051328;28;20473;-71
2022/06/01 08:31:17;;;;;;;1999.90;999.90;;;15.50;99.90;;;;;;5050919;28;20206;-71
2022/06/01 08:33:43;;;;;;;1999.90;999.90;;;15.60;99.90;;;;;;5051164;28;20202;-72
2022/06/01 08:36:08;;;;;;;1999.90;999.90;;;15.90;99.90;;;;;;5051017;28;20165;-71
2022/06/01 08:38:34;;;;;;;1999.90;999.90;;;15.90;99.90;;;;;;5051187;28;20176;-71
2022/06/01 08:41:04;;;;;;;1999.90;999.90;;;16.00;99.90;;;;;;5051146;28;20290;-70
2022/06/01 08:43:55;;;;;;;1999.90;999.90;;;16.20;99.90;;;;;;5053120;28;20657;-70
2022/06/01 08:46:23;;;;;;;1999.90;999.90;;;16.30;99.90;;;;;;5054442;28;20950;-69
2022/06/01 08:48:53;;;;;;;1999.90;999.90;;;16.40;99.90;;;;;;5054635;28;20403;-70
2022/06/01 08:51:24;;;;;;;1999.90;999.90;;;16.60;99.90;;;;;;5054974;28;20832;-70
2022/06/01 08:53:50;;;;;;;1999.90;999.90;;;16.80;99.90;;;;;;5054541;28;20409;-70
2022/06/01 08:56:23;;;;;;;1999.90;999.90;;;17.00;99.90;;;;;;5054225;28;20403;-70
2022/06/01 08:59:03;;;;;;;1999.90;999.90;;;17.00;99.90;;;;;;5054546;28;20186;-71
2022/06/01 09:02:05;;;;;;;1999.90;999.90;;;16.90;99.90;;;;;;5054246;28;20449;-71
2022/06/01 09:04:54;;;;;;;1999.90;999.90;;;17.00;99.90;;;;;;5054175;28;20409;-70
2022/06/01 09:07:39;;;;;;;1999.90;999.90;;;16.90;99.90;;;;;;5054388;28;20918;-71
2022/06/01 09:10:41;;;;;;;1999.90;999.90;;;17.20;99.90;;;;;;5054231;28;20437;-70
2022/06/01 09:13:23;;;;;;;1999.90;999.90;;;17.40;99.90;;;;;;5054161;28;20401;-71
2022/06/01 09:16:06;;;;;;;1999.90;999.90;;;17.60;99.90;;;;;;5053919;28;20858;-71
2022/06/01 09:18:44;;;;;;;1999.90;999.90;;;17.90;99.90;;;;;;5054117;28;20955;-71
2022/06/01 09:24:20;;;;;;;1999.90;999.90;;;18.50;99.90;;;;;;5053977;28;20418;-70
2022/06/01 09:26:50;;;;;;;1999.90;999.90;;;18.40;99.90;;;;;;5053934;28;20516;-70
2022/06/01 09:29:20;;;;;;;1999.90;999.90;;;18.50;99.90;;;;;;5053819;28;20411;-71
2022/06/01 09:31:49;;;;;;;1999.90;999.90;;;18.40;99.90;;;;;;5079792;22;20984;-70
2022/06/01 09:34:24;;;;;;;1999.90;999.90;;;18.50;99.90;;;;;;5073606;28;20429;-70
2022/06/01 09:37:13;;;;;;;1999.90;999.90;;;18.60;99.90;;;;;;5073765;28;20401;-70
2022/06/01 09:39:53;;;;;;;1999.90;999.90;;;18.60;99.90;;;;;;5073667;28;20404;-71
2022/06/01 09:42:35;;;;;;;1999.90;999.90;;;18.70;99.90;;;;;;5073581;28;20501;-70
2022/06/01 09:45:04;;;;;;;1999.90;999.90;;;18.80;99.90;;;;;;5073306;28;20472;-70
2022/06/01 09:47:40;;;;;;;1999.90;999.90;;;18.60;99.90;;;;;;5073479;28;20413;-71
2022/06/01 09:50:28;;;;;;;1999.90;999.90;;;18.50;99.90;;;;;;5055625;28;20420;-70
2022/06/01 09:53:12;;;;;;;1999.90;999.90;;;18.30;99.90;;;;;;5072629;28;21005;-70
2022/06/01 09:55:58;;;;;;;1999.90;999.90;;;18.00;99.90;;;;;;5073029;28;20400;-71
2022/06/01 10:06:53;;;;;;;1999.90;999.90;;;18.00;99.90;;;;;;5073504;28;20764;-70
2022/06/01 10:09:26;;;;;;;1999.90;999.90;;;18.20;99.90;;;;;;5073091;28;20409;-70
2022/06/01 10:11:54;;;;;;;1999.90;999.90;;;18.20;99.90;;;;;;5072968;28;20468;-71
2022/06/01 10:14:34;;;;;;;1999.90;999.90;;;18.00;99.90;;;;;;5072672;28;20389;-70
2022/06/01 10:17:27;;;;;;;1999.90;999.90;;;18.10;99.90;;;;;;5072974;28;20411;-71
2022/06/01 10:20:08;;;;;;;1999.90;999.90;;;18.10;99.90;;;;;;5072941;28;20452;-71
2022/06/01 10:22:41;;;;;;;1999.90;999.90;;;18.10;99.90;;;;;;5072808;28;20426;-70
2022/06/01 10:25:22;;;;;;;1999.90;999.90;;;18.10;99.90;;;;;;5072511;28;20543;-71
2022/06/01 10:27:58;;;;;;;1999.90;999.90;;;18.00;99.90;;;;;;5072717;28;20427;-71
2022/06/01 10:30:28;;;;;;;1999.90;999.90;;;17.80;99.90;;;;;;5072452;28;20403;-70
2022/06/01 10:33:17;;;;;;;1999.90;999.90;;;17.90;99.90;;;;;;5072610;28;20412;-71
2022/06/01 10:35:59;;;;;;;1999.90;999.90;;;17.90;99.90;;;;;;5072200;28;20419;-70
2022/06/01 10:38:29;;;;;;;1999.90;999.90;;;18.00;99.90;;;;;;5072635;28;20779;-70
2022/06/01 10:41:02;;;;;;;1999.90;999.90;;;17.90;99.90;;;;;;5072495;28;20428;-70
2022/06/01 10:43:38;;;;;;;1999.90;999.90;;;17.80;99.90;;;;;;5072371;28;20409;-72
2022/06/01 10:46:11;;;;;;;1999.90;999.90;;;18.00;99.90;;;;;;5072110;28;20478;-72
2022/06/01 10:48:57;;;;;;;1999.90;999.90;;;18.20;99.90;;;;;;5072418;28;20447;-72
2022/06/01 10:51:28;;;;;;;1999.90;999.90;;;18.40;99.90;;;;;;5072341;28;20428;-73
2022/06/01 10:54:13;;;;;;;1999.90;999.90;;;18.80;99.90;;;;;;5072292;28;20400;-73
2022/06/01 10:56:39;;;;;;;1999.90;999.90;;;19.20;99.90;;;;;;5072294;28;20403;-73
2022/06/01 10:59:09;;;;;;;1999.90;999.90;;;19.30;99.90;;;;;;5072255;28;20411;-73
2022/06/01 11:02:00;;;;;;;1999.90;999.90;;;19.30;99.90;;;;;;5072190;28;20239;-73
2022/06/01 11:04:32;;;;;;;1999.90;999.90;;;19.20;99.90;;;;;;5071719;28;20409;-73
2022/06/01 11:07:22;;;;;;;1999.90;999.90;;;19.20;99.90;;;;;;5071516;28;20419;-72
2022/06/01 11:10:23;;;;;;;1999.90;999.90;;;19.20;99.90;;;;;;5072081;28;20462;-71
2022/06/01 11:13:08;;;;;;;1999.90;999.90;;;19.70;99.90;;;;;;5072019;28;20460;-70
2022/06/01 11:15:48;;;;;;;1999.90;999.90;;;19.80;99.90;;;;;;5071750;28;20403;-70
2022/06/01 11:18:29;;;;;;;1999.90;999.90;;;19.60;99.90;;;;;;5072035;28;20498;-70
2022/06/01 11:21:32;;;;;;;1999.90;999.90;;;19.50;99.90;;;;;;5071913;28;20429;-70
2022/06/01 11:24:25;;;;;;;1999.90;999.90;;;19.30;99.90;;;;;;5071940;28;20929;-70
2022/06/01 11:27:05;;;;;;;1999.90;999.90;;;19.20;99.90;;;;;;5071948;28;20452;-71
2022/06/01 11:29:45;;;;;;;1999.90;999.90;;;19.20;99.90;;;;;;5071817;28;20391;-71
2022/06/01 11:32:27;;;;;;;1999.90;999.90;;;19.10;99.90;;;;;;5071746;28;20435;-71
2022/06/01 11:35:17;;;;;;;1999.90;999.90;;;19.00;99.90;;;;;;5071513;28;20402;-71
2022/06/01 11:37:54;;;;;;;1999.90;999.90;;;19.30;99.90;;;;;;5071841;28;20777;-72
2022/06/01 11:40:38;;;;;;;1999.90;999.90;;;19.60;99.90;;;;;;5071738;28;20441;-71
2022/06/01 11:43:30;;;;;;;1999.90;999.90;;;19.40;99.90;;;;;;5072036;28;20973;-70
2022/06/01 11:46:03;;;;;;;1999.90;999.90;;;19.70;99.90;;;;;;5062269;28;20455;-70
2022/06/01 11:48:37;;;;;;;1999.90;999.90;;;20.20;99.90;;;;;;5071760;28;20407;-71
2022/06/01 11:51:16;;;;;;;1999.90;999.90;;;20.30;99.70;;;;;;5071592;28;20514;-71
2022/06/01 11:53:44;;;;;;;1999.90;999.90;;;20.30;98.50;;;;;;5071652;28;20820;-71
2022/06/01 11:56:28;;;;;;;1999.90;999.90;;;20.20;93.50;;;;;;5071396;28;20406;-71
2022/06/01 11:59:27;;;;;;;1999.90;999.90;;;20.10;93.30;;;;;;5071610;28;20416;-70
2022/06/01 12:02:17;;;;;;;1999.90;999.90;;;20.10;91.90;;;;;;5071541;28;20578;-70
2022/06/01 12:05:05;;;;;;;1999.90;999.90;;;20.00;97.80;;;;;;5071244;28;20936;-70
2022/06/01 12:07:35;;;;;;;1999.90;999.90;;;19.50;99.90;;;;;;5071652;28;20420;-71
2022/06/01 12:10:07;;;;;;;1999.90;999.90;;;19.40;99.90;;;;;;5071542;28;20485;-71
2022/06/01 12:12:32;;;;;;;1999.90;999.90;;;19.50;99.90;;;;;;5071419;28;20415;-71
2022/06/01 12:15:14;;;;;;;1999.90;999.90;;;19.80;99.90;;;;;;5071193;28;20416;-71
2022/06/01 12:18:12;;;;;;;1999.90;999.90;;;20.70;99.90;;;;;;5073851;28;20185;-71
2022/06/01 12:20:38;;;;;;;1999.90;999.90;;;21.60;99.90;;;;;;5075171;28;20429;-71
2022/06/01 12:28:56;;;;;;;1999.90;999.90;;;23.00;66.20;;;;;;5075143;28;20418;-71
2022/06/01 12:31:38;;;;;;;1999.90;999.90;;;22.40;65.30;;;;;;5074819;28;20442;-71
2022/06/01 12:34:09;;;;;;;1999.90;999.90;;;22.70;62.70;;;;;;5074624;28;20401;-71
2022/06/01 12:36:50;;;;;;;1999.90;999.90;;;23.50;57.10;;;;;;5074972;28;20496;-71
2022/06/01 12:39:35;;;;;;;1999.90;999.90;;;24.10;53.30;;;;;;5074812;28;20409;-71
2022/06/01 12:42:13;;;;;;;1999.90;999.90;;;24.70;48.50;;;;;;5074712;28;20388;-71
2022/06/01 12:44:42;;;;;;;1999.90;999.90;;;24.20;45.40;;;;;;5074515;28;20389;-70
2022/06/01 12:47:25;;;;;;;1999.90;999.90;;;24.40;51.70;;;;;;5074720;28;20925;-72
2022/06/01 12:49:50;;;;;;;1999.90;999.90;;;24.40;53.10;;;;;;5074649;28;20429;-73
2022/06/01 12:52:22;;;;;;;1999.90;999.90;;;24.50;50.10;;;;;;5074565;28;20934;-71